sensor_id;sensor_type;location;lat;lon;timestamp;P1;durP1;ratioP1;P2;durP2;ratioP2
18360;SDS011;9308;48.550;9.108;2023-04-01T00:01:19;2.10;;;1.30;;
18360;SDS011;9308;48.550;9.108;2023-04-01T00:03:45;1.27;;;1.10;;
18360;SDS011;9308;48.550;9.108;2023-04-01T00:06:14;2.10;;;1.33;;
18360;SDS011;9308;48.550;9.108;2023-04-01T00:08:41;2.43;;;1.43;;
18360;SDS011;9308;48.550;9.108;2023-04-01T00:11:07;2.20;;;1.30;;
18360;SDS011;9308;48.550;9.108;2023-04-01T00:13:33;5.63;;;1.77;;
18360;SDS011;9308;48.550;9.108;2023-04-01T00:15:58;2.33;;;1.30;;
18360;SDS011;9308;48.550;9.108;2023-04-01T00:18:24;2.10;;;1.20;;
18360;SDS011;9308;48.550;9.108;2023-04-01T00:20:50;3.03;;;1.33;;
18360;SDS011;9308;48.550;9.108;2023-04-01T00:23:17;2.10;;;1.43;;
18360;SDS011;9308;48.550;9.108;2023-04-01T00:25:43;1.47;;;1.37;;
18360;SDS011;9308;48.550;9.108;2023-04-01T00:28:10;2.03;;;1.10;;
18360;SDS011;9308;48.550;9.108;2023-04-01T00:30:36;1.60;;;1.27;;
18360;SDS011;9308;48.550;9.108;2023-04-01T00:33:02;2.40;;;1.10;;
18360;SDS011;9308;48.550;9.108;2023-04-01T00:35:27;1.53;;;1.27;;
18360;SDS011;9308;48.550;9.108;2023-04-01T00:37:53;3.33;;;0.90;;
18360;SDS011;9308;48.550;9.108;2023-04-01T00:42:59;1.17;;;0.90;;
18360;SDS011;9308;48.550;9.108;2023-04-01T00:45:27;1.73;;;1.20;;
18360;SDS011;9308;48.550;9.108;2023-04-01T00:48:04;1.23;;;0.87;;
18360;SDS011;9308;48.550;9.108;2023-04-01T00:50:34;1.60;;;1.10;;
18360;SDS011;9308;48.550;9.108;2023-04-01T00:53:02;1.37;;;0.80;;
18360;SDS011;9308;48.550;9.108;2023-04-01T00:55:28;1.60;;;0.90;;
18360;SDS011;9308;48.550;9.108;2023-04-01T00:57:57;0.93;;;0.93;;
18360;SDS011;9308;48.550;9.108;2023-04-01T01:00:24;2.67;;;1.40;;
18360;SDS011;9308;48.550;9.108;2023-04-01T01:02:51;0.90;;;0.90;;
18360;SDS011;9308;48.550;9.108;2023-04-01T01:05:17;2.10;;;1.10;;
18360;SDS011;9308;48.550;9.108;2023-04-01T01:07:59;1.33;;;1.00;;
18360;SDS011;9308;48.550;9.108;2023-04-01T01:10:40;1.80;;;1.40;;
18360;SDS011;9308;48.550;9.108;2023-04-01T01:13:22;1.83;;;1.37;;
18360;SDS011;9308;48.550;9.108;2023-04-01T01:15:58;2.30;;;1.23;;
18360;SDS011;9308;48.550;9.108;2023-04-01T01:18:38;1.67;;;1.07;;
18360;SDS011;9308;48.550;9.108;2023-04-01T01:27:04;1.47;;;0.90;;
18360;SDS011;9308;48.550;9.108;2023-04-01T01:29:40;1.30;;;1.00;;
18360;SDS011;9308;48.550;9.108;2023-04-01T01:37:29;0.70;;;0.70;;
18360;SDS011;9308;48.550;9.108;2023-04-01T01:39:58;1.13;;;0.90;;
18360;SDS011;9308;48.550;9.108;2023-04-01T01:42:26;1.23;;;1.00;;
18360;SDS011;9308;48.550;9.108;2023-04-01T01:44:55;3.53;;;1.13;;
18360;SDS011;9308;48.550;9.108;2023-04-01T01:47:24;1.27;;;0.80;;
18360;SDS011;9308;48.550;9.108;2023-04-01T01:49:51;0.73;;;0.70;;
18360;SDS011;9308;48.550;9.108;2023-04-01T01:52:19;0.93;;;0.90;;
18360;SDS011;9308;48.550;9.108;2023-04-01T01:54:52;0.93;;;0.80;;
18360;SDS011;9308;48.550;9.108;2023-04-01T01:57:20;1.00;;;0.90;;
18360;SDS011;9308;48.550;9.108;2023-04-01T01:59:49;0.80;;;0.80;;
18360;SDS011;9308;48.550;9.108;2023-04-01T02:02:17;0.70;;;0.70;;
18360;SDS011;9308;48.550;9.108;2023-04-01T02:04:43;0.70;;;0.70;;
18360;SDS011;9308;48.550;9.108;2023-04-01T02:07:13;0.70;;;0.70;;
18360;SDS011;9308;48.550;9.108;2023-04-01T02:09:43;1.80;;;0.80;;
18360;SDS011;9308;48.550;9.108;2023-04-01T02:12:09;1.47;;;0.80;;
18360;SDS011;9308;48.550;9.108;2023-04-01T02:14:54;1.33;;;0.70;;
18360;SDS011;9308;48.550;9.108;2023-04-01T02:17:24;0.70;;;0.70;;
18360;SDS011;9308;48.550;9.108;2023-04-01T02:19:56;0.70;;;0.70;;
18360;SDS011;9308;48.550;9.108;2023-04-01T02:22:28;1.10;;;1.00;;
18360;SDS011;9308;48.550;9.108;2023-04-01T02:25:04;1.10;;;0.73;;
18360;SDS011;9308;48.550;9.108;2023-04-01T02:27:33;0.80;;;0.80;;
18360;SDS011;9308;48.550;9.108;2023-04-01T02:29:58;1.43;;;0.80;;
18360;SDS011;9308;48.550;9.108;2023-04-01T02:32:24;1.07;;;0.60;;
18360;SDS011;9308;48.550;9.108;2023-04-01T02:34:51;0.80;;;0.80;;
18360;SDS011;9308;48.550;9.108;2023-04-01T02:37:17;1.23;;;1.03;;
18360;SDS011;9308;48.550;9.108;2023-04-01T02:39:43;0.80;;;0.80;;
18360;SDS011;9308;48.550;9.108;2023-04-01T02:42:09;0.70;;;0.70;;
18360;SDS011;9308;48.550;9.108;2023-04-01T02:44:34;0.70;;;0.70;;
18360;SDS011;9308;48.550;9.108;2023-04-01T02:47:00;2.40;;;1.00;;
18360;SDS011;9308;48.550;9.108;2023-04-01T02:49:26;2.00;;;0.90;;
18360;SDS011;9308;48.550;9.108;2023-04-01T02:51:51;0.90;;;0.60;;
18360;SDS011;9308;48.550;9.108;2023-04-01T02:54:17;1.60;;;1.10;;
18360;SDS011;9308;48.550;9.108;2023-04-01T02:56:43;0.87;;;0.77;;
18360;SDS011;9308;48.550;9.108;2023-04-01T02:59:08;0.67;;;0.60;;
18360;SDS011;9308;48.550;9.108;2023-04-01T03:01:34;2.40;;;0.80;;
18360;SDS011;9308;48.550;9.108;2023-04-01T03:04:00;0.70;;;0.70;;
18360;SDS011;9308;48.550;9.108;2023-04-01T03:06:25;2.70;;;0.73;;
18360;SDS011;9308;48.550;9.108;2023-04-01T03:08:51;1.17;;;0.70;;
18360;SDS011;9308;48.550;9.108;2023-04-01T03:11:16;1.03;;;0.67;;
18360;SDS011;9308;48.550;9.108;2023-04-01T03:13:41;0.80;;;0.60;;
18360;SDS011;9308;48.550;9.108;2023-04-01T03:16:07;0.93;;;0.93;;
18360;SDS011;9308;48.550;9.108;2023-04-01T03:18:32;1.70;;;0.80;;
18360;SDS011;9308;48.550;9.108;2023-04-01T03:21:11;0.70;;;0.60;;
18360;SDS011;9308;48.550;9.108;2023-04-01T03:23:41;0.60;;;0.60;;
18360;SDS011;9308;48.550;9.108;2023-04-01T03:26:06;1.67;;;0.63;;
18360;SDS011;9308;48.550;9.108;2023-04-01T03:28:32;1.90;;;0.60;;
18360;SDS011;9308;48.550;9.108;2023-04-01T03:30:57;0.80;;;0.70;;
18360;SDS011;9308;48.550;9.108;2023-04-01T03:33:22;0.60;;;0.60;;
18360;SDS011;9308;48.550;9.108;2023-04-01T03:35:48;0.60;;;0.60;;
18360;SDS011;9308;48.550;9.108;2023-04-01T03:38:17;1.07;;;0.60;;
18360;SDS011;9308;48.550;9.108;2023-04-01T03:40:42;0.87;;;0.60;;
18360;SDS011;9308;48.550;9.108;2023-04-01T03:43:08;0.60;;;0.60;;
18360;SDS011;9308;48.550;9.108;2023-04-01T03:45:35;0.70;;;0.57;;
18360;SDS011;9308;48.550;9.108;2023-04-01T03:48:01;0.80;;;0.77;;
18360;SDS011;9308;48.550;9.108;2023-04-01T03:50:26;0.60;;;0.60;;
18360;SDS011;9308;48.550;9.108;2023-04-01T03:52:52;0.90;;;0.70;;
18360;SDS011;9308;48.550;9.108;2023-04-01T03:55:17;0.70;;;0.70;;
18360;SDS011;9308;48.550;9.108;2023-04-01T03:57:43;0.60;;;0.60;;
18360;SDS011;9308;48.550;9.108;2023-04-01T04:00:09;1.00;;;1.00;;
18360;SDS011;9308;48.550;9.108;2023-04-01T04:02:35;1.10;;;1.10;;
18360;SDS011;9308;48.550;9.108;2023-04-01T04:05:01;0.90;;;0.90;;
18360;SDS011;9308;48.550;9.108;2023-04-01T04:07:26;0.97;;;0.80;;
18360;SDS011;9308;48.550;9.108;2023-04-01T04:09:52;2.23;;;0.80;;
18360;SDS011;9308;48.550;9.108;2023-04-01T04:12:17;0.70;;;0.70;;
18360;SDS011;9308;48.550;9.108;2023-04-01T04:14:43;0.80;;;0.80;;
18360;SDS011;9308;48.550;9.108;2023-04-01T04:17:10;0.80;;;0.80;;
18360;SDS011;9308;48.550;9.108;2023-04-01T04:19:41;0.70;;;0.70;;
18360;SDS011;9308;48.550;9.108;2023-04-01T04:22:07;1.77;;;0.90;;
18360;SDS011;9308;48.550;9.108;2023-04-01T04:24:34;1.37;;;1.00;;
18360;SDS011;9308;48.550;9.108;2023-04-01T04:27:00;2.87;;;1.20;;
18360;SDS011;9308;48.550;9.108;2023-04-01T04:29:25;1.27;;;1.10;;
18360;SDS011;9308;48.550;9.108;2023-04-01T04:31:51;1.10;;;1.10;;
18360;SDS011;9308;48.550;9.108;2023-04-01T04:34:16;1.00;;;1.00;;
18360;SDS011;9308;48.550;9.108;2023-04-01T04:36:43;1.00;;;1.00;;
18360;SDS011;9308;48.550;9.108;2023-04-01T04:39:10;0.93;;;0.93;;
18360;SDS011;9308;48.550;9.108;2023-04-01T04:41:36;2.20;;;1.00;;
18360;SDS011;9308;48.550;9.108;2023-04-01T04:44:03;1.10;;;1.00;;
18360;SDS011;9308;48.550;9.108;2023-04-01T04:46:28;2.00;;;0.90;;
18360;SDS011;9308;48.550;9.108;2023-04-01T04:48:54;1.17;;;0.80;;
18360;SDS011;9308;48.550;9.108;2023-04-01T04:51:20;1.77;;;1.67;;
18360;SDS011;9308;48.550;9.108;2023-04-01T04:53:46;0.80;;;0.80;;
18360;SDS011;9308;48.550;9.108;2023-04-01T04:56:11;1.60;;;1.20;;
18360;SDS011;9308;48.550;9.108;2023-04-01T04:58:37;2.77;;;1.00;;
18360;SDS011;9308;48.550;9.108;2023-04-01T05:01:10;1.37;;;0.90;;
18360;SDS011;9308;48.550;9.108;2023-04-01T05:03:37;1.17;;;0.80;;
18360;SDS011;9308;48.550;9.108;2023-04-01T05:06:04;1.13;;;0.97;;
18360;SDS011;9308;48.550;9.108;2023-04-01T05:08:30;1.40;;;0.90;;
18360;SDS011;9308;48.550;9.108;2023-04-01T05:10:55;1.43;;;1.33;;
18360;SDS011;9308;48.550;9.108;2023-04-01T05:13:21;1.63;;;1.20;;
18360;SDS011;9308;48.550;9.108;2023-04-01T05:15:46;0.80;;;0.80;;
18360;SDS011;9308;48.550;9.108;2023-04-01T05:18:12;1.07;;;0.80;;
18360;SDS011;9308;48.550;9.108;2023-04-01T05:20:37;1.90;;;0.87;;
18360;SDS011;9308;48.550;9.108;2023-04-01T05:23:03;1.43;;;1.13;;
18360;SDS011;9308;48.550;9.108;2023-04-01T05:25:28;1.00;;;1.00;;
18360;SDS011;9308;48.550;9.108;2023-04-01T05:27:54;1.93;;;0.80;;
18360;SDS011;9308;48.550;9.108;2023-04-01T05:30:19;1.57;;;0.90;;
18360;SDS011;9308;48.550;9.108;2023-04-01T05:32:45;1.23;;;1.07;;
18360;SDS011;9308;48.550;9.108;2023-04-01T05:35:10;1.73;;;1.20;;
18360;SDS011;9308;48.550;9.108;2023-04-01T05:37:36;1.67;;;0.80;;
18360;SDS011;9308;48.550;9.108;2023-04-01T05:40:02;2.67;;;1.13;;
18360;SDS011;9308;48.550;9.108;2023-04-01T05:42:28;1.60;;;0.90;;
18360;SDS011;9308;48.550;9.108;2023-04-01T05:44:53;1.00;;;0.90;;
18360;SDS011;9308;48.550;9.108;2023-04-01T05:47:20;1.40;;;1.07;;
18360;SDS011;9308;48.550;9.108;2023-04-01T05:49:46;1.10;;;0.80;;
18360;SDS011;9308;48.550;9.108;2023-04-01T05:52:11;0.70;;;0.70;;
18360;SDS011;9308;48.550;9.108;2023-04-01T05:54:37;0.90;;;0.90;;
18360;SDS011;9308;48.550;9.108;2023-04-01T05:57:02;0.70;;;0.70;;
18360;SDS011;9308;48.550;9.108;2023-04-01T05:59:27;1.43;;;0.80;;
18360;SDS011;9308;48.550;9.108;2023-04-01T06:01:53;2.50;;;0.90;;
18360;SDS011;9308;48.550;9.108;2023-04-01T06:04:18;0.70;;;0.70;;
18360;SDS011;9308;48.550;9.108;2023-04-01T06:06:44;1.27;;;0.70;;
18360;SDS011;9308;48.550;9.108;2023-04-01T06:09:12;1.80;;;1.30;;
18360;SDS011;9308;48.550;9.108;2023-04-01T06:29:00;1.23;;;0.93;;
18360;SDS011;9308;48.550;9.108;2023-04-01T06:31:45;0.70;;;0.70;;
18360;SDS011;9308;48.550;9.108;2023-04-01T06:43:13;1.40;;;0.80;;
18360;SDS011;9308;48.550;9.108;2023-04-01T06:52:13;1.13;;;0.97;;
18360;SDS011;9308;48.550;9.108;2023-04-01T06:55:00;0.73;;;0.70;;
18360;SDS011;9308;48.550;9.108;2023-04-01T06:57:43;2.70;;;1.30;;
18360;SDS011;9308;48.550;9.108;2023-04-01T07:00:58;1.53;;;0.73;;
18360;SDS011;9308;48.550;9.108;2023-04-01T07:05:35;1.37;;;1.27;;
18360;SDS011;9308;48.550;9.108;2023-04-01T07:08:02;0.90;;;0.90;;
18360;SDS011;9308;48.550;9.108;2023-04-01T07:10:33;0.90;;;0.87;;
18360;SDS011;9308;48.550;9.108;2023-04-01T07:13:11;0.80;;;0.80;;
18360;SDS011;9308;48.550;9.108;2023-04-01T07:15:41;0.70;;;0.70;;
18360;SDS011;9308;48.550;9.108;2023-04-01T07:20:47;0.90;;;0.90;;
18360;SDS011;9308;48.550;9.108;2023-04-01T07:23:21;1.73;;;0.70;;
18360;SDS011;9308;48.550;9.108;2023-04-01T07:25:54;1.90;;;0.90;;
18360;SDS011;9308;48.550;9.108;2023-04-01T07:28:23;2.43;;;1.03;;
18360;SDS011;9308;48.550;9.108;2023-04-01T07:30:53;1.10;;;1.00;;
18360;SDS011;9308;48.550;9.108;2023-04-01T07:42:22;0.90;;;0.90;;
18360;SDS011;9308;48.550;9.108;2023-04-01T07:48:01;0.70;;;0.70;;
18360;SDS011;9308;48.550;9.108;2023-04-01T07:53:24;1.63;;;1.20;;
18360;SDS011;9308;48.550;9.108;2023-04-01T07:56:18;1.03;;;0.90;;
18360;SDS011;9308;48.550;9.108;2023-04-01T08:01:25;2.87;;;1.40;;
18360;SDS011;9308;48.550;9.108;2023-04-01T08:04:04;1.67;;;1.20;;
18360;SDS011;9308;48.550;9.108;2023-04-01T08:09:34;2.10;;;1.47;;
18360;SDS011;9308;48.550;9.108;2023-04-01T08:12:21;1.33;;;1.23;;
18360;SDS011;9308;48.550;9.108;2023-04-01T08:17:41;1.20;;;1.10;;
18360;SDS011;9308;48.550;9.108;2023-04-01T08:20:17;1.13;;;1.03;;
18360;SDS011;9308;48.550;9.108;2023-04-01T08:23:03;1.77;;;1.10;;
18360;SDS011;9308;48.550;9.108;2023-04-01T08:25:37;1.43;;;1.33;;
18360;SDS011;9308;48.550;9.108;2023-04-01T08:30:45;1.67;;;1.10;;
18360;SDS011;9308;48.550;9.108;2023-04-01T08:33:21;3.47;;;1.50;;
18360;SDS011;9308;48.550;9.108;2023-04-01T08:36:05;0.97;;;0.80;;
18360;SDS011;9308;48.550;9.108;2023-04-01T08:38:44;1.10;;;1.03;;
18360;SDS011;9308;48.550;9.108;2023-04-01T08:44:03;1.10;;;1.00;;
18360;SDS011;9308;48.550;9.108;2023-04-01T08:57:53;1.70;;;1.50;;
18360;SDS011;9308;48.550;9.108;2023-04-01T09:03:15;2.90;;;2.37;;
18360;SDS011;9308;48.550;9.108;2023-04-01T09:11:33;1.87;;;1.13;;
18360;SDS011;9308;48.550;9.108;2023-04-01T09:14:13;1.00;;;1.00;;
18360;SDS011;9308;48.550;9.108;2023-04-01T09:17:00;1.20;;;1.10;;
18360;SDS011;9308;48.550;9.108;2023-04-01T09:34:38;0.80;;;0.80;;
18360;SDS011;9308;48.550;9.108;2023-04-01T09:43:06;1.40;;;0.80;;
18360;SDS011;9308;48.550;9.108;2023-04-01T09:54:13;0.93;;;0.93;;
18360;SDS011;9308;48.550;9.108;2023-04-01T09:59:58;1.20;;;0.80;;
18360;SDS011;9308;48.550;9.108;2023-04-01T10:05:43;1.53;;;0.90;;
18360;SDS011;9308;48.550;9.108;2023-04-01T10:14:06;0.90;;;0.90;;
18360;SDS011;9308;48.550;9.108;2023-04-01T10:19:49;1.13;;;1.13;;
18360;SDS011;9308;48.550;9.108;2023-04-01T10:45:08;1.10;;;0.90;;
18360;SDS011;9308;48.550;9.108;2023-04-01T10:51:07;1.53;;;1.13;;
18360;SDS011;9308;48.550;9.108;2023-04-01T10:59:28;1.00;;;1.00;;
18360;SDS011;9308;48.550;9.108;2023-04-01T11:19:50;1.00;;;0.90;;
18360;SDS011;9308;48.550;9.108;2023-04-01T11:22:39;0.97;;;0.97;;
18360;SDS011;9308;48.550;9.108;2023-04-01T11:36:40;2.87;;;0.97;;
18360;SDS011;9308;48.550;9.108;2023-04-01T11:39:15;1.13;;;0.80;;
18360;SDS011;9308;48.550;9.108;2023-04-01T11:44:43;0.80;;;0.80;;
18360;SDS011;9308;48.550;9.108;2023-04-01T11:55:28;1.37;;;0.80;;
18360;SDS011;9308;48.550;9.108;2023-04-01T12:00:41;1.07;;;0.80;;
18360;SDS011;9308;48.550;9.108;2023-04-01T12:12:59;0.80;;;0.80;;
18360;SDS011;9308;48.550;9.108;2023-04-01T12:18:38;1.00;;;0.70;;
18360;SDS011;9308;48.550;9.108;2023-04-01T12:29:16;1.40;;;1.30;;
18360;SDS011;9308;48.550;9.108;2023-04-01T12:32:10;1.50;;;1.50;;
18360;SDS011;9308;48.550;9.108;2023-04-01T12:40:31;0.90;;;0.90;;
18360;SDS011;9308;48.550;9.108;2023-04-01T12:43:32;0.90;;;0.90;;
18360;SDS011;9308;48.550;9.108;2023-04-01T12:51:15;0.93;;;0.93;;
18360;SDS011;9308;48.550;9.108;2023-04-01T12:54:02;0.80;;;0.80;;
18360;SDS011;9308;48.550;9.108;2023-04-01T12:56:54;1.20;;;1.10;;
18360;SDS011;9308;48.550;9.108;2023-04-01T13:05:20;0.70;;;0.70;;
18360;SDS011;9308;48.550;9.108;2023-04-01T13:16:26;1.10;;;1.10;;
18360;SDS011;9308;48.550;9.108;2023-04-01T13:19:05;0.90;;;0.90;;
18360;SDS011;9308;48.550;9.108;2023-04-01T13:24:40;0.90;;;0.90;;
18360;SDS011;9308;48.550;9.108;2023-04-01T13:29:55;0.80;;;0.80;;
18360;SDS011;9308;48.550;9.108;2023-04-01T13:32:47;0.70;;;0.70;;
18360;SDS011;9308;48.550;9.108;2023-04-01T13:38:19;3.27;;;1.13;;
18360;SDS011;9308;48.550;9.108;2023-04-01T13:41:06;0.70;;;0.70;;
18360;SDS011;9308;48.550;9.108;2023-04-01T13:43:51;1.00;;;1.00;;
18360;SDS011;9308;48.550;9.108;2023-04-01T13:49:11;0.80;;;0.80;;
18360;SDS011;9308;48.550;9.108;2023-04-01T13:52:17;0.60;;;0.60;;
18360;SDS011;9308;48.550;9.108;2023-04-01T14:05:42;0.90;;;0.83;;
18360;SDS011;9308;48.550;9.108;2023-04-01T14:08:26;0.80;;;0.80;;
18360;SDS011;9308;48.550;9.108;2023-04-01T14:11:13;0.90;;;0.90;;
18360;SDS011;9308;48.550;9.108;2023-04-01T14:27:54;1.53;;;0.93;;
18360;SDS011;9308;48.550;9.108;2023-04-01T14:38:47;0.87;;;0.87;;
18360;SDS011;9308;48.550;9.108;2023-04-01T14:47:09;0.90;;;0.90;;
18360;SDS011;9308;48.550;9.108;2023-04-01T14:49:42;0.87;;;0.87;;
18360;SDS011;9308;48.550;9.108;2023-04-01T14:54:41;1.00;;;0.87;;
18360;SDS011;9308;48.550;9.108;2023-04-01T14:57:16;0.90;;;0.90;;
18360;SDS011;9308;48.550;9.108;2023-04-01T15:08:14;1.20;;;0.97;;
18360;SDS011;9308;48.550;9.108;2023-04-01T15:13:33;1.00;;;1.00;;
18360;SDS011;9308;48.550;9.108;2023-04-01T15:18:59;0.80;;;0.80;;
18360;SDS011;9308;48.550;9.108;2023-04-01T15:21:32;1.00;;;1.00;;
18360;SDS011;9308;48.550;9.108;2023-04-01T15:27:19;1.57;;;1.47;;
18360;SDS011;9308;48.550;9.108;2023-04-01T15:30:00;1.13;;;1.13;;
18360;SDS011;9308;48.550;9.108;2023-04-01T15:35:45;1.53;;;1.43;;
18360;SDS011;9308;48.550;9.108;2023-04-01T15:38:41;1.60;;;1.27;;
18360;SDS011;9308;48.550;9.108;2023-04-01T15:41:19;2.77;;;1.60;;
18360;SDS011;9308;48.550;9.108;2023-04-01T15:43:50;1.60;;;1.50;;
18360;SDS011;9308;48.550;9.108;2023-04-01T16:02:21;1.67;;;1.57;;
18360;SDS011;9308;48.550;9.108;2023-04-01T16:07:55;1.83;;;1.30;;
18360;SDS011;9308;48.550;9.108;2023-04-01T16:10:38;1.70;;;1.60;;
18360;SDS011;9308;48.550;9.108;2023-04-01T16:13:21;3.47;;;1.50;;
18360;SDS011;9308;48.550;9.108;2023-04-01T16:16:05;2.07;;;1.70;;
18360;SDS011;9308;48.550;9.108;2023-04-01T16:21:45;3.03;;;1.77;;
18360;SDS011;9308;48.550;9.108;2023-04-01T16:24:18;2.27;;;1.80;;
18360;SDS011;9308;48.550;9.108;2023-04-01T16:27:08;5.67;;;5.37;;
18360;SDS011;9308;48.550;9.108;2023-04-01T16:32:15;3.60;;;3.40;;
18360;SDS011;9308;48.550;9.108;2023-04-01T16:43:26;1.40;;;1.30;;
18360;SDS011;9308;48.550;9.108;2023-04-01T16:48:58;1.20;;;1.20;;
18360;SDS011;9308;48.550;9.108;2023-04-01T16:54:39;2.50;;;1.17;;
18360;SDS011;9308;48.550;9.108;2023-04-01T17:02:52;1.50;;;1.40;;
18360;SDS011;9308;48.550;9.108;2023-04-01T17:08:50;1.40;;;1.30;;
18360;SDS011;9308;48.550;9.108;2023-04-01T17:11:18;1.97;;;1.40;;
18360;SDS011;9308;48.550;9.108;2023-04-01T17:32:34;3.00;;;2.27;;
18360;SDS011;9308;48.550;9.108;2023-04-01T17:38:19;16.23;;;8.37;;
18360;SDS011;9308;48.550;9.108;2023-04-01T17:41:05;16.37;;;8.60;;
18360;SDS011;9308;48.550;9.108;2023-04-01T17:43:52;2.50;;;2.30;;
18360;SDS011;9308;48.550;9.108;2023-04-01T17:49:35;1.67;;;1.57;;
18360;SDS011;9308;48.550;9.108;2023-04-01T17:55:20;2.40;;;1.30;;
18360;SDS011;9308;48.550;9.108;2023-04-01T17:58:00;1.63;;;1.40;;
18360;SDS011;9308;48.550;9.108;2023-04-01T18:03:52;1.10;;;0.93;;
18360;SDS011;9308;48.550;9.108;2023-04-01T18:06:35;2.17;;;1.50;;
18360;SDS011;9308;48.550;9.108;2023-04-01T18:12:09;1.43;;;1.33;;
18360;SDS011;9308;48.550;9.108;2023-04-01T18:23:13;1.63;;;1.53;;
18360;SDS011;9308;48.550;9.108;2023-04-01T18:25:49;1.60;;;1.50;;
18360;SDS011;9308;48.550;9.108;2023-04-01T18:28:36;1.57;;;1.47;;
18360;SDS011;9308;48.550;9.108;2023-04-01T18:31:08;2.23;;;1.60;;
18360;SDS011;9308;48.550;9.108;2023-04-01T18:33:48;2.20;;;1.37;;
18360;SDS011;9308;48.550;9.108;2023-04-01T18:36:26;1.10;;;1.10;;
18360;SDS011;9308;48.550;9.108;2023-04-01T18:39:37;1.40;;;1.30;;
18360;SDS011;9308;48.550;9.108;2023-04-01T18:42:16;1.70;;;1.60;;
18360;SDS011;9308;48.550;9.108;2023-04-01T18:44:57;1.60;;;1.50;;
18360;SDS011;9308;48.550;9.108;2023-04-01T18:47:41;2.80;;;2.60;;
18360;SDS011;9308;48.550;9.108;2023-04-01T18:50:21;1.23;;;1.10;;
18360;SDS011;9308;48.550;9.108;2023-04-01T18:52:52;1.23;;;1.17;;
18360;SDS011;9308;48.550;9.108;2023-04-01T18:55:34;1.80;;;1.10;;
18360;SDS011;9308;48.550;9.108;2023-04-01T19:00:40;1.30;;;1.20;;
18360;SDS011;9308;48.550;9.108;2023-04-01T19:05:36;1.40;;;1.30;;
18360;SDS011;9308;48.550;9.108;2023-04-01T19:16:34;1.40;;;1.30;;
18360;SDS011;9308;48.550;9.108;2023-04-01T19:19:07;2.10;;;2.00;;
18360;SDS011;9308;48.550;9.108;2023-04-01T19:21:42;1.30;;;1.30;;
18360;SDS011;9308;48.550;9.108;2023-04-01T19:27:06;1.80;;;1.70;;
18360;SDS011;9308;48.550;9.108;2023-04-01T19:38:19;6.10;;;5.60;;
18360;SDS011;9308;48.550;9.108;2023-04-01T19:44:13;3.40;;;3.10;;
18360;SDS011;9308;48.550;9.108;2023-04-01T19:46:55;3.43;;;2.97;;
18360;SDS011;9308;48.550;9.108;2023-04-01T19:57:33;2.77;;;2.53;;
18360;SDS011;9308;48.550;9.108;2023-04-01T20:02:53;2.10;;;2.00;;
18360;SDS011;9308;48.550;9.108;2023-04-01T20:05:29;2.17;;;2.07;;
18360;SDS011;9308;48.550;9.108;2023-04-01T20:08:29;2.40;;;2.20;;
18360;SDS011;9308;48.550;9.108;2023-04-01T20:11:06;2.93;;;2.50;;
18360;SDS011;9308;48.550;9.108;2023-04-01T20:16:15;4.40;;;4.00;;
18360;SDS011;9308;48.550;9.108;2023-04-01T20:21:27;7.43;;;6.73;;
18360;SDS011;9308;48.550;9.108;2023-04-01T20:24:07;6.93;;;6.10;;
18360;SDS011;9308;48.550;9.108;2023-04-01T20:32:23;4.40;;;4.10;;
18360;SDS011;9308;48.550;9.108;2023-04-01T20:35:14;4.60;;;4.20;;
18360;SDS011;9308;48.550;9.108;2023-04-01T20:41:11;3.20;;;3.00;;
18360;SDS011;9308;48.550;9.108;2023-04-01T20:51:56;3.23;;;3.03;;
18360;SDS011;9308;48.550;9.108;2023-04-01T20:54:36;3.10;;;2.90;;
18360;SDS011;9308;48.550;9.108;2023-04-01T20:57:23;2.60;;;2.40;;
18360;SDS011;9308;48.550;9.108;2023-04-01T21:00:24;3.20;;;2.77;;
18360;SDS011;9308;48.550;9.108;2023-04-01T21:03:06;2.93;;;2.73;;
18360;SDS011;9308;48.550;9.108;2023-04-01T21:05:45;2.67;;;2.47;;
18360;SDS011;9308;48.550;9.108;2023-04-01T21:08:20;1.90;;;1.80;;
18360;SDS011;9308;48.550;9.108;2023-04-01T21:22:33;2.10;;;2.00;;
18360;SDS011;9308;48.550;9.108;2023-04-01T21:25:17;2.63;;;1.83;;
18360;SDS011;9308;48.550;9.108;2023-04-01T21:28:10;2.03;;;1.80;;
18360;SDS011;9308;48.550;9.108;2023-04-01T21:31:00;1.97;;;1.77;;
18360;SDS011;9308;48.550;9.108;2023-04-01T21:38:58;1.90;;;1.80;;
18360;SDS011;9308;48.550;9.108;2023-04-01T21:44:27;2.37;;;2.17;;
18360;SDS011;9308;48.550;9.108;2023-04-01T21:47:08;2.50;;;1.73;;
18360;SDS011;9308;48.550;9.108;2023-04-01T21:50:08;2.30;;;2.10;;
18360;SDS011;9308;48.550;9.108;2023-04-01T21:52:57;3.27;;;2.30;;
18360;SDS011;9308;48.550;9.108;2023-04-01T22:00:38;1.90;;;1.80;;
18360;SDS011;9308;48.550;9.108;2023-04-01T22:06:06;1.90;;;1.80;;
18360;SDS011;9308;48.550;9.108;2023-04-01T22:16:37;1.60;;;1.50;;
18360;SDS011;9308;48.550;9.108;2023-04-01T22:24:37;4.03;;;1.30;;
18360;SDS011;9308;48.550;9.108;2023-04-01T22:30:03;1.43;;;1.33;;
18360;SDS011;9308;48.550;9.108;2023-04-01T22:35:12;2.03;;;1.30;;
18360;SDS011;9308;48.550;9.108;2023-04-01T22:41:09;3.97;;;1.87;;
18360;SDS011;9308;48.550;9.108;2023-04-01T22:43:45;1.53;;;1.43;;
18360;SDS011;9308;48.550;9.108;2023-04-01T22:49:13;2.20;;;1.37;;
18360;SDS011;9308;48.550;9.108;2023-04-01T22:54:31;1.80;;;1.47;;
18360;SDS011;9308;48.550;9.108;2023-04-01T22:57:08;1.73;;;1.47;;
18360;SDS011;9308;48.550;9.108;2023-04-01T22:59:41;1.60;;;1.40;;
18360;SDS011;9308;48.550;9.108;2023-04-01T23:04:42;1.23;;;1.13;;
18360;SDS011;9308;48.550;9.108;2023-04-01T23:07:24;1.40;;;1.30;;
18360;SDS011;9308;48.550;9.108;2023-04-01T23:10:53;1.33;;;1.23;;
18360;SDS011;9308;48.550;9.108;2023-04-01T23:13:18;1.00;;;1.00;;
18360;SDS011;9308;48.550;9.108;2023-04-01T23:15:47;1.33;;;1.33;;
18360;SDS011;9308;48.550;9.108;2023-04-01T23:18:23;0.90;;;0.90;;
18360;SDS011;9308;48.550;9.108;2023-04-01T23:31:29;1.20;;;1.10;;
18360;SDS011;9308;48.550;9.108;2023-04-01T23:34:00;0.93;;;0.93;;
18360;SDS011;9308;48.550;9.108;2023-04-01T23:36:26;1.27;;;1.27;;
18360;SDS011;9308;48.550;9.108;2023-04-01T23:38:53;1.10;;;1.10;;
18360;SDS011;9308;48.550;9.108;2023-04-01T23:41:27;0.97;;;0.90;;
18360;SDS011;9308;48.550;9.108;2023-04-01T23:46:33;1.70;;;1.10;;
18360;SDS011;9308;48.550;9.108;2023-04-01T23:49:00;1.27;;;1.00;;
18360;SDS011;9308;48.550;9.108;2023-04-01T23:51:28;1.10;;;1.10;;
18360;SDS011;9308;48.550;9.108;2023-04-01T23:54:03;1.50;;;1.40;;
18360;SDS011;9308;48.550;9.108;2023-04-01T23:56:55;1.40;;;1.30;;
18360;SDS011;9308;48.550;9.108;2023-04-01T23:59:24;1.40;;;1.30;;
